Coosa, GA (30129)

11:14 AM EST on November 23, 2014 (GMT -0500)
Highlands of Rome | Change Station
CLOSE
Current Station
Personal Weather Station
Location: Rome, GA
Elevation: 665 ft
Nearby Weather Stations

Elev 665 ft 34.24 °N, 85.28 °W | Updated 1 minute ago

Rain
Rain
51.8 °F
Feels Like 51.8 °F
N
2.0
Wind Variable Wind from South
Gusts 7.0 mph

Today
High -- | Low -- °F
--% Chance of Precip.
Yesterday
High -- | Low -- °F
Precip. -- in
7:21 AM 5:33 PM
New Moon, 2% visible
Pressure 29.93 in
Visibility 7.0 miles
Clouds Overcast 900 ft
Dew Point 50 °F
Humidity 94%
Rainfall 0.29 in
Snow Depth Not available.
UV 1 out of 12
Pollen .30 out of 12
Air Quality Not available.
Flu Activity Not available.
METAR KRMG 231553Z AUTO 12007KT 7SM OVC009 11/11 A2994 RMK AO2 RAE48 CIG 005V013 SLP134 P0003 T01110106

More Conditions Fewer Conditions

Pressure 29.93 in
Visibility 7.0 miles
Clouds Overcast 900 ft
Dew Point 50 °F
Humidity 94%
Rainfall 0.29 in
Snow Depth Not available.
UV 1 out of 12
Pollen .30 out of 12
Air Quality Not available.
Flu Activity Not available.
METAR KRMG 231553Z AUTO 12007KT 7SM OVC009 11/11 A2994 RMK AO2 RAE48 CIG 005V013 SLP134 P0003 T01110106

More Conditions Fewer Conditions

10-Day Weather Forecast

Almanac

Astronomy

Nov. 23, 2014 Rise Set
Actual Time
Civil Twilight
Nautical Twilight
Astronomical Twilight
Moon
Length of Visible Light
Length of Day
Tomorrow will be .
, % of the Moon is Illuminated

Today's Extremes

State Highs State Lows

Community

WunderPhotos

Upload Photos

1,773,089 photos uploaded!

WunderBlogs® & News

Nearby

Air Quality

  Air Quality AQ Index Pollutant
Not available.

Snow Depth

Station Depth Elevation

Earthquake Activity

City Distance Mag. Time & Date
Minimum magnitude displayed is 2.5.

Coastal Water Temperatures

Place Temperature

Nearby Weather Stations